createdAt,value
2023-05-10T00:01:24.322Z,169.05
2023-05-10T00:03:51.546Z,157.23
2023-05-10T00:06:18.808Z,160.77
2023-05-10T00:08:46.673Z,181.18
2023-05-10T00:11:13.808Z,172.45
2023-05-10T00:13:41.529Z,170.45
2023-05-10T00:16:08.821Z,164.73
2023-05-10T00:18:36.071Z,165.80
2023-05-10T00:21:03.386Z,162.10
2023-05-10T00:23:30.535Z,166.57
2023-05-10T00:25:58.008Z,172.60
2023-05-10T00:28:25.208Z,171.20
2023-05-10T00:30:52.344Z,167.40
2023-05-10T00:33:19.515Z,152.98
2023-05-10T00:35:46.671Z,157.73
2023-05-10T00:38:13.940Z,160.43
2023-05-10T00:43:16.071Z,161.80
2023-05-10T00:45:43.330Z,179.00
2023-05-10T00:48:10.593Z,163.48
2023-05-10T00:50:38.299Z,67.32
2023-05-10T00:53:05.551Z,140.35
2023-05-10T00:55:32.788Z,159.57
2023-05-10T00:58:00.028Z,167.32
2023-05-10T01:00:27.339Z,149.38
2023-05-10T01:02:55.520Z,144.35
2023-05-10T01:05:23.659Z,154.60
2023-05-10T01:07:52.006Z,151.15
2023-05-10T01:10:19.477Z,142.32
2023-05-10T01:12:48.656Z,146.45
2023-05-10T01:15:18.154Z,170.18
2023-05-10T01:17:48.686Z,154.30
2023-05-10T01:20:16.878Z,162.43
2023-05-10T01:26:36.072Z,143.55
2023-05-10T01:32:42.778Z,125.65
2023-05-10T01:35:41.084Z,51.45
2023-05-10T01:38:38.325Z,136.15
2023-05-10T01:41:37.724Z,157.23
2023-05-10T01:44:38.346Z,150.73
2023-05-10T01:47:27.323Z,156.10
2023-05-10T01:49:56.949Z,150.80
2023-05-10T01:52:34.112Z,135.13
2023-05-10T01:55:07.590Z,124.45
2023-05-10T01:57:40.539Z,130.63
2023-05-10T02:00:10.395Z,115.22
2023-05-10T02:02:49.736Z,123.50
2023-05-10T02:05:18.863Z,144.10
2023-05-10T02:07:46.692Z,119.50
2023-05-10T02:10:15.658Z,109.13
2023-05-10T02:12:48.730Z,124.28
2023-05-10T02:15:24.128Z,143.27
2023-05-10T02:17:53.949Z,140.60
2023-05-10T02:20:23.532Z,113.47
2023-05-10T02:22:57.314Z,118.70
2023-05-10T02:25:26.577Z,124.50
2023-05-10T02:27:57.165Z,125.15
2023-05-10T02:30:24.944Z,117.65
2023-05-10T02:32:53.638Z,130.60
2023-05-10T02:35:21.849Z,135.55
2023-05-10T02:37:49.732Z,145.30
2023-05-10T02:40:18.802Z,139.05
2023-05-10T02:42:48.736Z,133.73
2023-05-10T02:45:22.949Z,134.88
2023-05-10T02:47:50.705Z,140.88
2023-05-10T02:50:18.262Z,151.75
2023-05-10T02:52:54.873Z,139.25
2023-05-10T02:55:27.977Z,156.18
2023-05-10T02:58:02.407Z,150.23
2023-05-10T03:00:30.239Z,153.50
2023-05-10T03:02:57.615Z,157.18
2023-05-10T03:07:54.625Z,143.85
2023-05-10T03:10:28.839Z,137.47
2023-05-10T03:13:12.108Z,159.13
2023-05-10T03:15:54.830Z,140.70
2023-05-10T03:18:57.901Z,151.43
2023-05-10T03:21:29.793Z,156.55
2023-05-10T03:24:12.834Z,145.18
2023-05-10T03:26:41.812Z,138.27
2023-05-10T03:29:15.562Z,145.25
2023-05-10T03:31:43.267Z,150.60
2023-05-10T03:34:10.621Z,151.57
2023-05-10T03:36:37.772Z,143.93
2023-05-10T03:39:04.885Z,136.38
2023-05-10T03:41:32.076Z,136.05
2023-05-10T03:43:59.290Z,132.70
2023-05-10T03:46:26.569Z,135.75
2023-05-10T03:48:53.968Z,128.43
2023-05-10T03:51:21.389Z,138.95
2023-05-10T03:53:49.372Z,135.50
2023-05-10T03:56:16.636Z,128.75
2023-05-10T03:58:43.778Z,125.88
2023-05-10T04:01:11.433Z,131.32
2023-05-10T04:03:39.175Z,122.53
2023-05-10T04:06:07.954Z,127.97
2023-05-10T04:08:35.292Z,128.35
2023-05-10T04:11:13.815Z,118.13
2023-05-10T04:13:41.104Z,135.05
2023-05-10T04:16:08.447Z,132.43
2023-05-10T04:18:36.146Z,126.13
2023-05-10T04:21:03.584Z,153.48
2023-05-10T04:23:30.740Z,145.45
2023-05-10T04:26:02.831Z,138.57
2023-05-10T04:28:30.007Z,135.05
2023-05-10T04:31:10.014Z,139.57
2023-05-10T04:33:37.970Z,177.80
2023-05-10T04:36:06.090Z,156.95
2023-05-10T04:38:33.231Z,148.35
2023-05-10T04:41:09.167Z,154.77
2023-05-10T04:43:37.694Z,149.40
2023-05-10T04:46:06.043Z,166.10
2023-05-10T04:51:00.608Z,148.05
2023-05-10T04:53:28.323Z,157.80
2023-05-10T04:55:55.654Z,151.48
2023-05-10T04:58:22.845Z,142.35
2023-05-10T05:00:50.070Z,195.73
2023-05-10T05:03:17.364Z,159.07
2023-05-10T05:05:45.804Z,146.57
2023-05-10T05:10:40.237Z,141.73
2023-05-10T05:13:07.445Z,154.43
2023-05-10T05:15:34.933Z,145.73
2023-05-10T05:18:02.125Z,154.45
2023-05-10T05:20:29.417Z,153.50
2023-05-10T05:22:56.572Z,147.77
2023-05-10T05:25:23.950Z,152.23
2023-05-10T05:27:51.071Z,172.95
2023-05-10T05:30:18.533Z,148.95
2023-05-10T05:32:45.981Z,161.15
2023-05-10T05:35:13.343Z,154.70
2023-05-10T05:37:40.981Z,148.98
2023-05-10T05:40:09.247Z,165.45
2023-05-10T05:42:36.392Z,178.02
2023-05-10T05:45:03.718Z,161.23
2023-05-10T05:47:31.717Z,169.43
2023-05-10T05:49:59.073Z,177.70
2023-05-10T05:52:26.234Z,162.57
2023-05-10T05:54:53.405Z,159.82
2023-05-10T05:57:20.512Z,167.18
2023-05-10T05:59:47.708Z,180.20
2023-05-10T06:02:14.957Z,172.50
2023-05-10T06:04:44.913Z,178.10
2023-05-10T06:07:14.930Z,172.63
2023-05-10T06:09:42.106Z,157.32
2023-05-10T06:12:09.233Z,163.77
2023-05-10T06:14:36.377Z,53.40
2023-05-10T06:17:05.979Z,50.47
2023-05-10T06:19:33.257Z,50.00
2023-05-10T06:22:00.433Z,60.75
2023-05-10T06:24:28.117Z,50.78
2023-05-10T06:26:55.242Z,63.78
2023-05-10T06:29:22.396Z,56.47
2023-05-10T06:31:49.553Z,91.20
2023-05-10T06:34:16.706Z,57.65
2023-05-10T06:36:44.241Z,52.92
2023-05-10T06:39:12.962Z,60.90
2023-05-10T06:41:40.088Z,65.80
2023-05-10T06:44:07.304Z,56.28
2023-05-10T06:46:34.485Z,54.47
2023-05-10T06:49:01.778Z,74.10
2023-05-10T06:51:29.031Z,68.35
2023-05-10T06:53:56.273Z,69.05
2023-05-10T06:56:23.686Z,75.93
2023-05-10T06:58:51.313Z,66.60
2023-05-10T07:01:18.758Z,67.95
2023-05-10T07:03:46.365Z,65.95
2023-05-10T07:06:29.361Z,64.88
2023-05-10T07:09:01.395Z,67.53
2023-05-10T07:11:29.987Z,66.35
2023-05-10T07:13:57.148Z,63.10
2023-05-10T07:16:24.879Z,72.35
2023-05-10T07:18:52.012Z,73.13
2023-05-10T07:21:19.227Z,71.82
2023-05-10T07:23:46.423Z,56.72
2023-05-10T07:26:13.606Z,67.60
2023-05-10T07:28:40.880Z,51.05
2023-05-10T07:31:08.047Z,63.35
2023-05-10T07:33:35.238Z,56.97
2023-05-10T07:36:02.653Z,53.63
2023-05-10T07:38:29.914Z,67.47
2023-05-10T07:40:57.153Z,51.10
2023-05-10T07:43:24.308Z,48.63
2023-05-10T07:45:52.736Z,54.38
2023-05-10T07:48:21.164Z,51.45
2023-05-10T07:50:48.343Z,67.15
2023-05-10T07:53:15.516Z,68.40
2023-05-10T07:55:42.714Z,56.53
2023-05-10T07:58:09.906Z,54.53
2023-05-10T08:00:40.185Z,50.00
2023-05-10T08:03:07.441Z,51.55
2023-05-10T08:05:35.791Z,52.92
2023-05-10T08:10:30.304Z,49.50
2023-05-10T08:12:59.311Z,49.03
2023-05-10T08:15:26.534Z,49.33
2023-05-10T08:17:53.870Z,57.42
2023-05-10T08:20:21.574Z,41.67
2023-05-10T08:22:51.175Z,43.35
2023-05-10T08:25:19.274Z,59.38
2023-05-10T08:27:46.652Z,49.15
2023-05-10T08:30:14.216Z,50.70
2023-05-10T08:32:41.370Z,46.30
2023-05-10T08:35:08.704Z,53.08
2023-05-10T08:37:35.987Z,48.50
2023-05-10T08:40:04.168Z,46.90
2023-05-10T08:42:36.427Z,48.38
2023-05-10T08:45:05.684Z,52.13
2023-05-10T08:47:33.334Z,53.53
2023-05-10T08:50:03.921Z,52.28
2023-05-10T08:52:33.956Z,53.80
2023-05-10T08:55:01.255Z,53.95
2023-05-10T08:57:28.726Z,55.10
2023-05-10T08:59:56.010Z,70.82
2023-05-10T09:02:25.164Z,48.05
2023-05-10T09:04:52.524Z,48.47
2023-05-10T09:07:21.065Z,74.82
2023-05-10T09:09:49.475Z,46.55
2023-05-10T09:12:17.341Z,55.08
2023-05-10T09:14:46.564Z,57.22
2023-05-10T09:17:14.371Z,41.75
2023-05-10T09:19:41.563Z,48.08
2023-05-10T09:22:09.277Z,40.60
2023-05-10T09:24:37.810Z,43.85
2023-05-10T09:27:04.944Z,39.53
2023-05-10T09:29:44.361Z,41.45
2023-05-10T09:32:11.703Z,37.72
2023-05-10T09:34:42.178Z,40.38
2023-05-10T09:37:09.415Z,52.67
2023-05-10T09:39:38.839Z,48.20
2023-05-10T09:42:10.841Z,39.38
2023-05-10T09:44:39.056Z,48.83
2023-05-10T09:47:06.419Z,32.40
2023-05-10T09:49:34.168Z,32.03
2023-05-10T09:52:07.354Z,34.38
2023-05-10T09:54:35.638Z,39.00
2023-05-10T09:57:03.262Z,32.13
2023-05-10T09:59:31.158Z,31.02
2023-05-10T10:02:00.815Z,27.48
2023-05-10T10:04:28.444Z,50.33
2023-05-10T10:07:06.188Z,31.05
2023-05-10T10:09:35.102Z,28.05
2023-05-10T10:12:03.760Z,42.10
2023-05-10T10:14:31.376Z,34.05
2023-05-10T10:17:08.088Z,33.60
2023-05-10T10:19:37.283Z,36.47
2023-05-10T10:22:05.142Z,24.80
2023-05-10T10:24:32.794Z,31.33
2023-05-10T10:27:34.570Z,24.15
2023-05-10T10:30:43.500Z,49.03
2023-05-10T10:33:51.444Z,28.00
2023-05-10T10:36:18.732Z,25.10
2023-05-10T10:38:48.796Z,22.35
2023-05-10T10:41:36.338Z,19.95
2023-05-10T10:44:34.617Z,24.33
2023-05-10T10:47:23.844Z,32.60
2023-05-10T10:49:57.207Z,24.90
2023-05-10T10:52:34.115Z,32.45
2023-05-10T10:55:19.937Z,24.48
2023-05-10T10:57:49.917Z,58.25
2023-05-10T11:00:33.387Z,24.52
2023-05-10T11:03:09.636Z,47.60
2023-05-10T11:05:44.170Z,28.98
2023-05-10T11:11:03.146Z,34.38
2023-05-10T11:13:50.076Z,29.90
2023-05-10T11:16:25.252Z,31.73
2023-05-10T11:19:09.256Z,49.63
2023-05-10T11:22:14.520Z,22.77
2023-05-10T11:24:57.596Z,31.40
2023-05-10T11:27:24.840Z,46.88
2023-05-10T11:29:55.218Z,28.45
2023-05-10T11:32:23.052Z,27.35
2023-05-10T11:34:50.415Z,26.92
2023-05-10T11:37:19.814Z,90.95
2023-05-10T11:39:48.613Z,24.05
2023-05-10T11:42:15.978Z,44.97
2023-05-10T11:44:45.302Z,30.20
2023-05-10T11:47:13.501Z,23.98
2023-05-10T11:49:44.931Z,40.95
2023-05-10T11:52:12.413Z,68.85
2023-05-10T11:54:56.306Z,36.20
2023-05-10T11:57:29.464Z,27.70
2023-05-10T11:59:58.664Z,24.60
2023-05-10T12:02:26.340Z,30.30
2023-05-10T12:04:53.871Z,41.17
2023-05-10T12:07:21.093Z,26.27
2023-05-10T12:10:17.515Z,28.30
2023-05-10T12:12:49.084Z,50.05
2023-05-10T12:15:23.354Z,26.27
2023-05-10T12:17:52.046Z,23.98
2023-05-10T12:20:23.296Z,21.30
2023-05-10T12:23:00.718Z,23.85
2023-05-10T12:25:35.799Z,26.52
2023-05-10T12:28:10.539Z,60.90
2023-05-10T12:30:39.717Z,82.88
2023-05-10T12:33:17.591Z,43.40
2023-05-10T12:35:48.727Z,27.92
2023-05-10T12:38:40.001Z,29.38
2023-05-10T12:41:19.187Z,27.92
2023-05-10T12:43:47.346Z,26.27
2023-05-10T12:46:18.486Z,28.63
2023-05-10T12:49:06.866Z,38.17
2023-05-10T12:51:36.004Z,28.88
2023-05-10T12:54:04.905Z,25.48
2023-05-10T12:56:32.119Z,29.80
2023-05-10T12:58:59.277Z,32.42
2023-05-10T13:01:26.518Z,23.92
2023-05-10T13:03:53.693Z,35.72
2023-05-10T13:06:20.863Z,26.92
2023-05-10T13:08:48.020Z,27.63
2023-05-10T13:11:17.862Z,24.15
2023-05-10T13:13:47.987Z,26.13
2023-05-10T13:16:15.312Z,29.52
2023-05-10T13:18:42.680Z,23.08
2023-05-10T13:21:09.864Z,38.97
2023-05-10T13:23:37.035Z,44.50
2023-05-10T13:26:04.227Z,24.80
2023-05-10T13:28:31.726Z,26.48
2023-05-10T13:31:00.910Z,34.72
2023-05-10T13:33:28.128Z,27.00
2023-05-10T13:35:55.861Z,25.05
2023-05-10T13:38:23.358Z,37.83
2023-05-10T13:40:53.606Z,24.33
2023-05-10T13:43:21.159Z,26.23
2023-05-10T13:45:48.480Z,29.17
2023-05-10T13:48:16.014Z,24.95
2023-05-10T13:50:44.002Z,27.23
2023-05-10T13:53:11.237Z,27.55
2023-05-10T13:55:38.466Z,27.88
2023-05-10T13:58:05.798Z,26.27
2023-05-10T14:00:33.059Z,23.75
2023-05-10T14:03:00.489Z,24.10
2023-05-10T14:05:28.205Z,26.45
2023-05-10T14:07:55.776Z,29.08
2023-05-10T14:10:22.990Z,29.23
2023-05-10T14:12:51.537Z,24.52
2023-05-10T14:15:19.161Z,23.63
2023-05-10T14:17:46.654Z,36.42
2023-05-10T14:20:13.821Z,24.38
2023-05-10T14:22:41.468Z,21.20
2023-05-10T14:25:09.599Z,22.23
2023-05-10T14:27:36.734Z,22.15
2023-05-10T14:30:04.454Z,20.65
2023-05-10T14:32:32.958Z,26.88
2023-05-10T14:35:00.637Z,37.38
2023-05-10T14:37:27.838Z,27.00
2023-05-10T14:39:55.372Z,24.58
2023-05-10T14:42:22.713Z,26.92
2023-05-10T14:44:49.968Z,28.35
2023-05-10T14:47:17.280Z,28.55
2023-05-10T14:49:44.375Z,30.15
2023-05-10T14:52:13.107Z,39.05
2023-05-10T14:54:41.222Z,27.00
2023-05-10T14:57:08.698Z,24.90
2023-05-10T14:59:35.919Z,24.42
2023-05-10T15:02:05.155Z,20.92
2023-05-10T15:04:33.151Z,24.23
2023-05-10T15:07:01.428Z,29.63
2023-05-10T15:09:28.856Z,23.33
2023-05-10T15:11:56.700Z,27.92
2023-05-10T15:14:24.455Z,23.95
2023-05-10T15:16:52.887Z,39.13
2023-05-10T15:19:21.532Z,27.15
2023-05-10T15:21:48.763Z,26.20
2023-05-10T15:24:16.006Z,28.23
2023-05-10T15:26:43.151Z,25.25
2023-05-10T15:29:10.810Z,28.90
2023-05-10T15:31:38.144Z,28.52
2023-05-10T15:34:05.609Z,25.77
2023-05-10T15:36:33.515Z,35.95
2023-05-10T15:39:02.035Z,24.27
2023-05-10T15:41:29.729Z,31.80
2023-05-10T15:43:57.124Z,28.25
2023-05-10T15:46:25.304Z,25.38
2023-05-10T15:48:52.937Z,32.05
2023-05-10T15:51:20.191Z,22.00
2023-05-10T15:54:05.271Z,25.55
2023-05-10T15:59:01.765Z,28.73
2023-05-10T16:01:29.318Z,22.58
2023-05-10T16:03:56.937Z,22.40
2023-05-10T16:06:24.103Z,24.50
2023-05-10T16:08:52.874Z,23.90
2023-05-10T16:11:21.558Z,22.02
2023-05-10T16:13:48.852Z,20.08
2023-05-10T16:16:16.112Z,19.40
2023-05-10T16:18:43.387Z,23.70
2023-05-10T16:21:10.831Z,24.10
2023-05-10T16:23:38.035Z,23.67
2023-05-10T16:26:05.187Z,18.77
2023-05-10T16:28:32.439Z,18.30
2023-05-10T16:30:59.841Z,24.65
2023-05-10T16:33:27.142Z,21.70
2023-05-10T16:35:54.280Z,25.38
2023-05-10T16:38:21.843Z,24.73
2023-05-10T16:40:49.149Z,23.33
2023-05-10T16:43:16.509Z,32.58
2023-05-10T16:45:43.798Z,22.45
2023-05-10T16:48:10.972Z,21.92
2023-05-10T16:50:38.239Z,22.70
2023-05-10T16:53:05.446Z,23.17
2023-05-10T16:55:32.570Z,20.70
2023-05-10T16:58:00.870Z,17.17
2023-05-10T17:02:55.484Z,21.25
2023-05-10T17:05:23.201Z,21.42
2023-05-10T17:07:50.456Z,23.73
2023-05-10T17:12:46.289Z,15.75
2023-05-10T17:15:13.578Z,15.50
2023-05-10T17:17:40.767Z,21.02
2023-05-10T17:20:09.106Z,22.00
2023-05-10T17:25:04.171Z,16.55
2023-05-10T17:27:31.514Z,21.83
2023-05-10T17:29:59.428Z,17.10
2023-05-10T17:32:26.859Z,18.33
2023-05-10T17:34:54.005Z,16.00
2023-05-10T17:37:21.239Z,18.70
2023-05-10T17:39:48.436Z,18.65
2023-05-10T17:42:18.878Z,17.70
2023-05-10T17:44:46.266Z,15.75
2023-05-10T17:47:13.510Z,16.52
2023-05-10T17:49:40.857Z,20.83
2023-05-10T17:52:08.128Z,17.13
2023-05-10T17:54:35.561Z,15.48
2023-05-10T17:57:03.705Z,15.23
2023-05-10T17:59:30.977Z,16.60
2023-05-10T18:01:58.189Z,16.70
2023-05-10T18:04:25.978Z,15.45
2023-05-10T18:07:00.938Z,16.48
2023-05-10T18:09:29.169Z,18.42
2023-05-10T18:11:56.404Z,19.38
2023-05-10T18:14:38.991Z,14.98
2023-05-10T18:17:07.831Z,17.40
2023-05-10T18:19:35.269Z,16.65
2023-05-10T18:22:02.722Z,15.95
2023-05-10T18:24:38.944Z,27.55
2023-05-10T18:27:09.499Z,23.13
2023-05-10T18:32:04.594Z,18.58
2023-05-10T18:34:31.840Z,21.20
2023-05-10T18:36:59.745Z,27.58
2023-05-10T18:39:26.998Z,25.63
2023-05-10T18:41:54.289Z,51.25
2023-05-10T18:44:23.184Z,26.55
2023-05-10T18:46:54.093Z,26.95
2023-05-10T18:49:21.463Z,31.80
2023-05-10T18:51:48.588Z,35.33
2023-05-10T18:54:15.890Z,28.00
2023-05-10T18:56:45.167Z,28.55
2023-05-10T18:59:13.132Z,20.98
2023-05-10T19:01:42.014Z,26.30
2023-05-10T19:04:09.318Z,22.63
2023-05-10T19:06:36.829Z,18.23
2023-05-10T19:09:04.404Z,17.25
2023-05-10T19:11:33.998Z,16.20
2023-05-10T19:14:02.355Z,21.17
2023-05-10T19:18:58.040Z,23.50
2023-05-10T19:21:25.778Z,27.65
2023-05-10T19:23:53.592Z,24.88
2023-05-10T19:26:21.047Z,29.00
2023-05-10T19:28:50.879Z,30.73
2023-05-10T19:31:18.562Z,28.00
2023-05-10T19:33:46.839Z,32.95
2023-05-10T19:36:14.264Z,26.00
2023-05-10T19:38:41.558Z,25.17
2023-05-10T19:41:08.815Z,24.42
2023-05-10T19:43:39.761Z,26.45
2023-05-10T19:46:09.712Z,25.63
2023-05-10T19:48:37.076Z,24.92
2023-05-10T19:51:08.532Z,26.90
2023-05-10T19:53:37.660Z,27.08
2023-05-10T19:56:07.086Z,29.80
2023-05-10T19:58:34.506Z,27.35
2023-05-10T20:01:02.252Z,25.73
2023-05-10T20:03:29.987Z,61.00
2023-05-10T20:05:57.244Z,95.55
2023-05-10T20:08:25.395Z,60.92
2023-05-10T20:10:53.031Z,55.35
2023-05-10T20:13:22.573Z,47.97
2023-05-10T20:15:49.706Z,42.92
2023-05-10T20:18:22.574Z,41.88
2023-05-10T20:20:59.112Z,29.02
2023-05-10T20:23:26.751Z,23.13
2023-05-10T20:25:54.622Z,26.10
2023-05-10T20:28:25.201Z,23.98
2023-05-10T20:31:07.526Z,21.58
2023-05-10T20:33:34.782Z,20.67
2023-05-10T20:36:02.025Z,25.95
2023-05-10T20:38:29.195Z,40.83
2023-05-10T20:40:56.410Z,34.22
2023-05-10T20:43:23.780Z,34.17
2023-05-10T20:45:51.091Z,30.33
2023-05-10T20:48:19.643Z,38.30
2023-05-10T20:50:49.215Z,26.00
2023-05-10T20:53:22.952Z,33.13
2023-05-10T20:55:51.698Z,28.10
2023-05-10T20:58:20.146Z,31.30
2023-05-10T21:00:47.765Z,30.98
2023-05-10T21:03:16.854Z,49.55
2023-05-10T21:05:44.168Z,37.72
2023-05-10T21:08:16.047Z,60.08
2023-05-10T21:10:50.264Z,41.53
2023-05-10T21:20:48.020Z,36.65
2023-05-10T21:23:17.482Z,25.73
2023-05-10T21:25:44.673Z,23.13
2023-05-10T21:28:21.808Z,31.00
2023-05-10T21:30:50.203Z,25.05
2023-05-10T21:35:46.935Z,22.25
2023-05-10T21:38:14.271Z,27.67
2023-05-10T21:40:41.853Z,28.17
2023-05-10T21:43:09.617Z,27.30
2023-05-10T21:45:37.142Z,23.73
2023-05-10T21:48:04.546Z,24.08
2023-05-10T21:50:31.824Z,27.10
2023-05-10T21:53:00.346Z,27.83
2023-05-10T21:55:27.886Z,26.83
2023-05-10T21:57:55.052Z,29.70
2023-05-10T22:00:22.575Z,27.95
2023-05-10T22:02:50.024Z,24.92
2023-05-10T22:05:21.987Z,29.00
2023-05-10T22:07:49.175Z,25.92
2023-05-10T22:10:16.963Z,27.20
2023-05-10T22:12:44.293Z,26.70
2023-05-10T22:15:11.910Z,25.05
2023-05-10T22:17:41.642Z,25.42
2023-05-10T22:20:09.531Z,24.60
2023-05-10T22:22:36.829Z,26.63
2023-05-10T22:25:08.559Z,30.00
2023-05-10T22:27:36.147Z,27.88
2023-05-10T22:30:04.923Z,26.45
2023-05-10T22:32:34.516Z,24.95
2023-05-10T22:35:03.337Z,27.48
2023-05-10T22:37:30.738Z,25.10
2023-05-10T22:39:57.916Z,29.15
2023-05-10T22:42:25.057Z,26.73
2023-05-10T22:44:52.270Z,27.25
2023-05-10T22:47:19.412Z,28.88
2023-05-10T22:49:46.992Z,28.88
2023-05-10T22:52:14.168Z,44.42
2023-05-10T22:54:41.472Z,23.33
2023-05-10T22:57:08.729Z,25.80
2023-05-10T22:59:35.997Z,26.13
2023-05-10T23:02:03.565Z,32.50
2023-05-10T23:04:31.264Z,26.77
2023-05-10T23:06:58.825Z,20.63
2023-05-10T23:09:26.008Z,24.13
2023-05-10T23:11:53.307Z,25.20
2023-05-10T23:14:20.445Z,25.05
2023-05-10T23:16:47.608Z,26.65
2023-05-10T23:19:14.789Z,25.42
2023-05-10T23:21:42.049Z,37.03
2023-05-10T23:24:09.364Z,24.38
2023-05-10T23:26:36.584Z,26.80
2023-05-10T23:29:03.789Z,27.52
2023-05-10T23:31:31.252Z,24.10
2023-05-10T23:33:58.412Z,27.52
2023-05-10T23:36:25.744Z,30.08
2023-05-10T23:38:52.914Z,34.08
2023-05-10T23:41:20.077Z,27.77
2023-05-10T23:43:47.217Z,31.60
2023-05-10T23:46:14.405Z,31.50
2023-05-10T23:48:41.648Z,29.27
2023-05-10T23:51:08.877Z,33.70
2023-05-10T23:53:36.479Z,31.58
2023-05-10T23:56:04.904Z,30.27
2023-05-10T23:58:32.060Z,33.75
